Time;durP1;ratioP1;P1;durP2;ratioP2;P2;SDS_P1;SDS_P2;PMS_P1;PMS_P2;Temp;Humidity;BMP_temperature;BMP_pressure;BME280_temperature;BME280_humidity;BME280_pressure;Samples;Min_cycle;Max_cycle;Signal;HPM_P1;HPM_P2
2021/07/23 00:01:47;;;;;;;;;;;;;;;;;;5030963;28;19932;-68
2021/07/23 00:04:14;;;;;;;;;;;;;;;;;;5034173;28;20369;-68
2021/07/23 00:06:41;;;;;;;;;;;;;;;;;;5030046;28;19940;-69
2021/07/23 00:09:08;;;;;;;;;;;;;;;;;;5032168;28;19925;-69
2021/07/23 00:11:35;;;;;;;;;;;;;;;;;;5038408;28;19935;-68
2021/07/23 00:14:02;;;;;;;;;;;;;;;;;;5049739;28;20285;-68
2021/07/23 00:16:29;;;;;;;;;;;;;;;;;;5044444;28;19925;-68
2021/07/23 00:18:56;;;;;;;;;;;;;;;;;;5033719;28;19935;-67
2021/07/23 00:21:23;;;;;;;;;;;;;;;;;;5039741;28;19940;-68
2021/07/23 00:23:50;;;;;;;;;;;;;;;;;;5051442;28;19929;-70
2021/07/23 00:26:19;;;;;;;;;;;;;;;;;;5051932;28;19993;-70
2021/07/23 00:28:46;;;;;;;;;;;;;;;;;;5049786;28;19926;-68
2021/07/23 00:31:13;;;;;;;;;;;;;;;;;;5036648;28;19925;-68
2021/07/23 00:33:39;;;;;;;;;;;;;;;;;;5028523;28;19925;-68
2021/07/23 00:36:06;;;;;;;;;;;;;;;;;;5027391;28;20381;-69
2021/07/23 00:38:33;;;;;;;;;;;;;;;;;;5029117;28;19932;-68
2021/07/23 00:41:00;;;;;;;;;;;;;;;;;;5029664;28;19932;-67
2021/07/23 00:43:27;;;;;;;;;;;;;;;;;;5029908;28;19925;-67
2021/07/23 00:45:54;;;;;;;;;;;;;;;;;;5030986;28;19943;-68
2021/07/23 00:48:21;;;;;;;;;;;;;;;;;;5032168;28;19932;-68
2021/07/23 00:50:48;;;;;;;;;;;;;;;;;;5029229;28;19925;-67
2021/07/23 00:53:15;;;;;;;;;;;;;;;;;;5034482;28;20304;-69
2021/07/23 00:55:42;;;;;;;;;;;;;;;;;;5030202;28;19932;-68
2021/07/23 00:58:09;;;;;;;;;;;;;;;;;;5030183;28;19925;-69
2021/07/23 01:00:39;;;;;;;;;;;;;;;;;;5033180;28;19933;-67
2021/07/23 01:03:06;;;;;;;;;;;;;;;;;;5034330;28;19932;-68
2021/07/23 01:05:33;;;;;;;;;;;;;;;;;;5032516;28;19925;-70
2021/07/23 01:08:00;;;;;;;;;;;;;;;;;;5033560;28;20274;-68
2021/07/23 01:10:27;;;;;;;;;;;;;;;;;;5033479;28;19929;-68
2021/07/23 01:12:53;;;;;;;;;;;;;;;;;;5032055;28;19932;-69
2021/07/23 01:15:20;;;;;;;;;;;;;;;;;;5033681;28;20377;-68
2021/07/23 01:17:48;;;;;;;;;;;;;;;;;;5033089;28;19931;-68
2021/07/23 01:20:15;;;;;;;;;;;;;;;;;;5031721;28;20480;-67
2021/07/23 01:22:42;;;;;;;;;;;;;;;;;;5033578;28;19925;-68
2021/07/23 01:25:09;;;;;;;;;;;;;;;;;;5032762;28;20020;-68
2021/07/23 01:27:40;;;;;;;;;;;;;;;;;;5035826;28;19933;-69
2021/07/23 01:30:08;;;;;;;;;;;;;;;;;;5033725;28;19925;-68
2021/07/23 01:32:35;;;;;;;;;;;;;;;;;;5034795;28;19925;-68
2021/07/23 01:35:02;;;;;;;;;;;;;;;;;;5032854;28;19925;-68
2021/07/23 01:37:29;;;;;;;;;;;;;;;;;;5032200;28;20309;-68
2021/07/23 01:39:56;;;;;;;;;;;;;;;;;;5038100;28;19931;-68
2021/07/23 01:42:24;;;;;;;;;;;;;;;;;;5035204;28;19925;-68
2021/07/23 01:44:51;;;;;;;;;;;;;;;;;;5034459;28;19932;-67
2021/07/23 01:47:18;;;;;;;;;;;;;;;;;;5038304;28;19929;-68
2021/07/23 01:49:45;;;;;;;;;;;;;;;;;;5031734;28;19940;-69
2021/07/23 01:52:12;;;;;;;;;;;;;;;;;;5031861;28;20297;-67
2021/07/23 01:54:39;;;;;;;;;;;;;;;;;;5032587;28;19929;-67
2021/07/23 01:57:06;;;;;;;;;;;;;;;;;;5032049;28;19925;-66
2021/07/23 01:59:33;;;;;;;;;;;;;;;;;;5030843;28;20420;-66
2021/07/23 02:01:59;;;;;;;;;;;;;;;;;;5032286;28;19930;-67
2021/07/23 02:04:26;;;;;;;;;;;;;;;;;;5031072;28;19935;-66
2021/07/23 02:06:53;;;;;;;;;;;;;;;;;;5033612;28;19925;-66
2021/07/23 02:09:20;;;;;;;;;;;;;;;;;;5031004;28;19925;-67
2021/07/23 02:11:47;;;;;;;;;;;;;;;;;;5028854;28;19931;-67
2021/07/23 02:14:14;;;;;;;;;;;;;;;;;;5031866;28;19961;-68
2021/07/23 02:16:41;;;;;;;;;;;;;;;;;;5032375;28;20316;-66
2021/07/23 02:19:08;;;;;;;;;;;;;;;;;;5031907;28;19925;-68
2021/07/23 02:21:35;;;;;;;;;;;;;;;;;;5032237;28;19925;-66
2021/07/23 02:24:02;;;;;;;;;;;;;;;;;;5034578;28;19937;-70
2021/07/23 02:26:32;;;;;;;;;;;;;;;;;;5031272;28;19936;-66
2021/07/23 02:29:01;;;;;;;;;;;;;;;;;;5031821;28;19932;-69
2021/07/23 02:31:28;;;;;;;;;;;;;;;;;;5033510;28;19932;-68
2021/07/23 02:33:55;;;;;;;;;;;;;;;;;;5032065;28;19947;-69
2021/07/23 02:36:22;;;;;;;;;;;;;;;;;;5030397;28;19925;-67
2021/07/23 02:38:49;;;;;;;;;;;;;;;;;;5031993;28;20417;-69
2021/07/23 02:41:16;;;;;;;;;;;;;;;;;;5031574;28;19931;-68
2021/07/23 02:43:49;;;;;;;;;;;;;;;;;;5030875;28;19932;-69
2021/07/23 02:46:18;;;;;;;;;;;;;;;;;;5036064;28;20289;-67
2021/07/23 02:48:45;;;;;;;;;;;;;;;;;;5031233;28;20408;-69
2021/07/23 02:51:13;;;;;;;;;;;;;;;;;;5030771;28;19925;-67
2021/07/23 02:53:40;;;;;;;;;;;;;;;;;;5031314;28;19933;-69
2021/07/23 02:56:07;;;;;;;;;;;;;;;;;;5030688;28;19943;-69
2021/07/23 02:58:34;;;;;;;;;;;;;;;;;;5035668;28;19972;-68
2021/07/23 03:01:01;;;;;;;;;;;;;;;;;;5030173;28;19925;-70
2021/07/23 03:03:28;;;;;;;;;;;;;;;;;;5031477;28;20140;-70
2021/07/23 03:05:55;;;;;;;;;;;;;;;;;;5030429;28;19925;-68
2021/07/23 03:08:22;;;;;;;;;;;;;;;;;;5030366;28;19936;-69
2021/07/23 03:10:49;;;;;;;;;;;;;;;;;;5029791;28;19929;-68
2021/07/23 03:13:16;;;;;;;;;;;;;;;;;;5033862;28;20377;-68
2021/07/23 03:15:43;;;;;;;;;;;;;;;;;;5031507;28;20381;-67
2021/07/23 03:18:10;;;;;;;;;;;;;;;;;;5029548;28;19925;-68
2021/07/23 03:20:37;;;;;;;;;;;;;;;;;;5029025;28;19943;-67
2021/07/23 03:23:04;;;;;;;;;;;;;;;;;;5028929;28;20445;-69
2021/07/23 03:25:30;;;;;;;;;;;;;;;;;;5030086;28;19932;-66
2021/07/23 03:27:57;;;;;;;;;;;;;;;;;;5031757;28;19925;-68
2021/07/23 03:30:25;;;;;;;;;;;;;;;;;;5029904;28;20300;-68
2021/07/23 03:32:52;;;;;;;;;;;;;;;;;;5030759;28;19925;-68
2021/07/23 03:35:19;;;;;;;;;;;;;;;;;;5029326;28;19948;-69
2021/07/23 03:37:46;;;;;;;;;;;;;;;;;;5028094;28;20397;-68
2021/07/23 03:40:12;;;;;;;;;;;;;;;;;;5042239;22;20376;-69
2021/07/23 03:42:39;;;;;;;;;;;;;;;;;;5025128;28;19948;-68
2021/07/23 03:45:06;;;;;;;;;;;;;;;;;;5025462;28;20405;-68
2021/07/23 03:47:33;;;;;;;;;;;;;;;;;;5028621;28;19925;-68
2021/07/23 03:50:00;;;;;;;;;;;;;;;;;;5007355;28;19926;-68
2021/07/23 03:52:27;;;;;;;;;;;;;;;;;;5007667;28;19925;-68
2021/07/23 03:54:54;;;;;;;;;;;;;;;;;;5007182;28;19925;-68
2021/07/23 03:57:21;;;;;;;;;;;;;;;;;;5006474;28;20389;-68
2021/07/23 03:59:48;;;;;;;;;;;;;;;;;;5003778;28;20298;-68
2021/07/23 04:02:15;;;;;;;;;;;;;;;;;;5004588;28;19926;-68
2021/07/23 04:04:42;;;;;;;;;;;;;;;;;;5002237;28;19933;-68
2021/07/23 04:07:09;;;;;;;;;;;;;;;;;;5007870;28;19940;-69
2021/07/23 04:09:36;;;;;;;;;;;;;;;;;;5000816;28;20355;-68
2021/07/23 04:12:03;;;;;;;;;;;;;;;;;;5005368;28;19925;-68
2021/07/23 04:14:30;;;;;;;;;;;;;;;;;;5005475;28;19932;-68
2021/07/23 04:16:57;;;;;;;;;;;;;;;;;;5002647;28;19930;-67
2021/07/23 04:19:24;;;;;;;;;;;;;;;;;;5006084;28;19959;-67
2021/07/23 04:21:51;;;;;;;;;;;;;;;;;;4998418;28;19940;-68
2021/07/23 04:24:18;;;;;;;;;;;;;;;;;;5007624;28;19930;-68
2021/07/23 04:26:44;;;;;;;;;;;;;;;;;;5001327;28;19933;-68
2021/07/23 04:29:11;;;;;;;;;;;;;;;;;;5003624;28;20503;-67
2021/07/23 04:31:38;;;;;;;;;;;;;;;;;;4999987;28;19933;-67
2021/07/23 04:34:05;;;;;;;;;;;;;;;;;;5010227;28;19934;-68
2021/07/23 04:36:32;;;;;;;;;;;;;;;;;;5008961;28;19925;-68
2021/07/23 04:39:03;;;;;;;;;;;;;;;;;;5010829;28;19926;-68
2021/07/23 04:41:30;;;;;;;;;;;;;;;;;;5005523;28;19925;-68
2021/07/23 04:43:57;;;;;;;;;;;;;;;;;;5011921;28;19932;-68
2021/07/23 04:46:24;;;;;;;;;;;;;;;;;;5002755;28;19926;-68
2021/07/23 04:48:51;;;;;;;;;;;;;;;;;;5003299;28;19926;-68
2021/07/23 04:51:17;;;;;;;;;;;;;;;;;;5010058;28;19929;-68
2021/07/23 04:53:45;;;;;;;;;;;;;;;;;;5004529;28;19932;-68
2021/07/23 04:56:12;;;;;;;;;;;;;;;;;;5006483;28;19949;-68
2021/07/23 04:58:38;;;;;;;;;;;;;;;;;;5008241;28;19926;-68
2021/07/23 05:01:05;;;;;;;;;;;;;;;;;;5003570;28;19933;-67
2021/07/23 05:03:32;;;;;;;;;;;;;;;;;;5013547;28;20364;-70
2021/07/23 05:05:59;;;;;;;;;;;;;;;;;;5019875;28;19955;-69
2021/07/23 05:08:27;;;;;;;;;;;;;;;;;;5010495;28;19926;-71
2021/07/23 05:10:54;;;;;;;;;;;;;;;;;;5008488;28;20328;-71
2021/07/23 05:13:21;;;;;;;;;;;;;;;;;;5026552;28;19921;-70
2021/07/23 05:15:48;;;;;;;;;;;;;;;;;;5028875;28;19930;-70
2021/07/23 05:18:15;;;;;;;;;;;;;;;;;;5029138;28;19960;-72
2021/07/23 05:20:42;;;;;;;;;;;;;;;;;;5018211;28;20304;-70
2021/07/23 05:23:09;;;;;;;;;;;;;;;;;;5008779;28;19933;-68
2021/07/23 05:25:36;;;;;;;;;;;;;;;;;;5006365;28;19926;-68
2021/07/23 05:28:03;;;;;;;;;;;;;;;;;;5011440;28;19925;-68
2021/07/23 05:30:30;;;;;;;;;;;;;;;;;;5006832;28;19931;-68
2021/07/23 05:32:57;;;;;;;;;;;;;;;;;;5005051;28;19931;-68
2021/07/23 05:35:24;;;;;;;;;;;;;;;;;;5005326;28;20292;-68
2021/07/23 05:37:51;;;;;;;;;;;;;;;;;;5009152;28;19926;-68
2021/07/23 05:40:18;;;;;;;;;;;;;;;;;;5011112;28;19963;-68
2021/07/23 05:42:45;;;;;;;;;;;;;;;;;;5008402;28;21164;-68
2021/07/23 05:45:12;;;;;;;;;;;;;;;;;;5011309;28;19931;-68
2021/07/23 05:47:39;;;;;;;;;;;;;;;;;;5012144;28;19940;-68
2021/07/23 05:50:06;;;;;;;;;;;;;;;;;;5022743;28;19940;-67
2021/07/23 05:52:33;;;;;;;;;;;;;;;;;;5015991;28;19940;-68
2021/07/23 05:55:00;;;;;;;;;;;;;;;;;;5005938;28;20297;-68
2021/07/23 05:57:27;;;;;;;;;;;;;;;;;;5006552;28;19925;-68
2021/07/23 05:59:53;;;;;;;;;;;;;;;;;;5007839;28;19949;-68
2021/07/23 06:02:20;;;;;;;;;;;;;;;;;;5006584;28;19933;-69
2021/07/23 06:04:47;;;;;;;;;;;;;;;;;;5011339;28;19931;-68
2021/07/23 06:07:15;;;;;;;;;;;;;;;;;;5005575;28;19934;-68
2021/07/23 06:09:42;;;;;;;;;;;;;;;;;;5004959;28;19934;-67
2021/07/23 06:12:09;;;;;;;;;;;;;;;;;;5006419;28;19925;-67
2021/07/23 06:14:36;;;;;;;;;;;;;;;;;;5003944;28;19926;-67
2021/07/23 06:17:03;;;;;;;;;;;;;;;;;;5001847;28;20356;-67
2021/07/23 06:19:30;;;;;;;;;;;;;;;;;;5004888;28;19925;-68
2021/07/23 06:21:57;;;;;;;;;;;;;;;;;;5005390;28;19929;-67
2021/07/23 06:24:23;;;;;;;;;;;;;;;;;;5007019;28;20289;-69
2021/07/23 06:26:50;;;;;;;;;;;;;;;;;;5004331;28;19948;-68
2021/07/23 06:29:17;;;;;;;;;;;;;;;;;;5004328;28;19930;-68
2021/07/23 06:31:44;;;;;;;;;;;;;;;;;;5005165;28;19925;-68
2021/07/23 06:34:11;;;;;;;;;;;;;;;;;;5017967;28;19926;-69
2021/07/23 06:36:38;;;;;;;;;;;;;;;;;;5013883;28;20400;-69
2021/07/23 06:39:05;;;;;;;;;;;;;;;;;;5006168;28;19926;-69
2021/07/23 06:41:32;;;;;;;;;;;;;;;;;;5006882;28;20024;-69
2021/07/23 06:43:59;;;;;;;;;;;;;;;;;;5003733;28;20386;-69
2021/07/23 06:46:26;;;;;;;;;;;;;;;;;;5003588;28;20282;-68
2021/07/23 06:48:53;;;;;;;;;;;;;;;;;;5004610;28;19944;-68
2021/07/23 06:51:20;;;;;;;;;;;;;;;;;;5003743;28;19926;-68
2021/07/23 06:53:47;;;;;;;;;;;;;;;;;;4998056;28;19925;-68
2021/07/23 06:56:14;;;;;;;;;;;;;;;;;;5003315;28;19925;-69
2021/07/23 06:58:41;;;;;;;;;;;;;;;;;;5004983;28;19925;-68
2021/07/23 07:01:08;;;;;;;;;;;;;;;;;;5005069;28;19926;-68
2021/07/23 07:03:35;;;;;;;;;;;;;;;;;;5004187;28;19926;-68
2021/07/23 07:06:02;;;;;;;;;;;;;;;;;;5007019;28;20113;-69
2021/07/23 07:08:29;;;;;;;;;;;;;;;;;;5006259;28;19926;-69
2021/07/23 07:10:56;;;;;;;;;;;;;;;;;;5003864;28;19925;-69
2021/07/23 07:13:23;;;;;;;;;;;;;;;;;;5005636;28;20374;-69
2021/07/23 07:15:50;;;;;;;;;;;;;;;;;;5005377;28;20513;-69
2021/07/23 07:18:17;;;;;;;;;;;;;;;;;;5007541;28;19965;-68
2021/07/23 07:20:44;;;;;;;;;;;;;;;;;;5020984;28;19936;-68
2021/07/23 07:23:11;;;;;;;;;;;;;;;;;;5007715;28;19926;-69
2021/07/23 07:25:38;;;;;;;;;;;;;;;;;;5004091;28;20415;-69
2021/07/23 07:28:06;;;;;;;;;;;;;;;;;;5003691;28;20305;-69
2021/07/23 07:30:35;;;;;;;;;;;;;;;;;;5002562;28;19929;-68
2021/07/23 07:33:02;;;;;;;;;;;;;;;;;;5001876;28;19948;-68
2021/07/23 07:35:29;;;;;;;;;;;;;;;;;;5004260;28;19925;-68
2021/07/23 07:37:56;;;;;;;;;;;;;;;;;;5003770;28;19944;-68
2021/07/23 07:40:23;;;;;;;;;;;;;;;;;;5001455;28;19932;-68
2021/07/23 07:42:50;;;;;;;;;;;;;;;;;;5005991;28;19925;-67
2021/07/23 07:45:17;;;;;;;;;;;;;;;;;;5005202;28;19932;-67
2021/07/23 07:47:44;;;;;;;;;;;;;;;;;;5006084;28;20406;-68
2021/07/23 07:50:11;;;;;;;;;;;;;;;;;;5004863;28;20020;-68
2021/07/23 07:52:38;;;;;;;;;;;;;;;;;;5006264;28;20390;-69
2021/07/23 07:55:05;;;;;;;;;;;;;;;;;;5005689;28;19932;-68
2021/07/23 07:57:32;;;;;;;;;;;;;;;;;;5007989;28;20347;-70
2021/07/23 07:59:59;;;;;;;;;;;;;;;;;;5004197;28;19940;-70
2021/07/23 08:02:26;;;;;;;;;;;;;;;;;;5005754;28;19933;-69
2021/07/23 08:04:53;;;;;;;;;;;;;;;;;;5009304;28;19932;-67
2021/07/23 08:07:23;;;;;;;;;;;;;;;;;;5015196;28;19932;-67
2021/07/23 08:09:52;;;;;;;;;;;;;;;;;;5004127;28;20298;-67
2021/07/23 08:12:19;;;;;;;;;;;;;;;;;;5006241;28;19925;-67
2021/07/23 08:14:46;;;;;;;;;;;;;;;;;;5004529;28;20301;-67
2021/07/23 08:17:13;;;;;;;;;;;;;;;;;;5000827;28;19929;-67
2021/07/23 08:19:40;;;;;;;;;;;;;;;;;;5004650;28;19932;-67
2021/07/23 08:22:07;;;;;;;;;;;;;;;;;;5005780;28;19934;-68
2021/07/23 08:24:34;;;;;;;;;;;;;;;;;;5007467;28;19934;-69
2021/07/23 08:27:01;;;;;;;;;;;;;;;;;;5003771;28;19925;-69
2021/07/23 08:29:28;;;;;;;;;;;;;;;;;;5003048;28;20318;-68
2021/07/23 08:31:55;;;;;;;;;;;;;;;;;;5003953;28;19939;-69
2021/07/23 08:34:22;;;;;;;;;;;;;;;;;;5005247;28;19932;-68
2021/07/23 08:36:48;;;;;;;;;;;;;;;;;;5001150;28;19929;-69
2021/07/23 08:39:15;;;;;;;;;;;;;;;;;;5003729;28;19926;-68
2021/07/23 08:41:42;;;;;;;;;;;;;;;;;;5004883;28;19929;-69
2021/07/23 08:44:09;;;;;;;;;;;;;;;;;;5005775;28;19932;-69
2021/07/23 08:46:38;;;;;;;;;;;;;;;;;;5004252;28;19926;-69
2021/07/23 08:49:06;;;;;;;;;;;;;;;;;;5002725;28;19937;-69
2021/07/23 08:51:33;;;;;;;;;;;;;;;;;;5014571;28;19926;-69
2021/07/23 08:54:00;;;;;;;;;;;;;;;;;;5023995;28;19953;-68
2021/07/23 08:56:27;;;;;;;;;;;;;;;;;;5001456;28;19963;-68
2021/07/23 08:58:54;;;;;;;;;;;;;;;;;;5005247;28;19926;-69
2021/07/23 09:01:21;;;;;;;;;;;;;;;;;;5003937;28;19936;-69
2021/07/23 09:03:48;;;;;;;;;;;;;;;;;;5002106;28;20534;-68
2021/07/23 09:06:15;;;;;;;;;;;;;;;;;;5001362;28;19926;-68
2021/07/23 09:08:42;;;;;;;;;;;;;;;;;;5002919;28;19936;-68
2021/07/23 09:11:09;;;;;;;;;;;;;;;;;;5004066;28;20305;-68
2021/07/23 09:13:36;;;;;;;;;;;;;;;;;;5004537;28;20314;-68
2021/07/23 09:16:03;;;;;;;;;;;;;;;;;;5002447;28;19926;-67
2021/07/23 09:18:31;;;;;;;;;;;;;;;;;;4999853;28;19925;-68
2021/07/23 09:20:58;;;;;;;;;;;;;;;;;;5005345;28;19952;-68
2021/07/23 09:23:25;;;;;;;;;;;;;;;;;;5007466;28;19930;-68
2021/07/23 09:25:52;;;;;;;;;;;;;;;;;;5006243;28;19926;-68
2021/07/23 09:28:19;;;;;;;;;;;;;;;;;;5006768;28;19930;-68
2021/07/23 09:30:46;;;;;;;;;;;;;;;;;;4998634;28;19926;-69
2021/07/23 09:33:13;;;;;;;;;;;;;;;;;;5007354;28;19939;-68
2021/07/23 09:35:40;;;;;;;;;;;;;;;;;;5007252;28;19933;-69
2021/07/23 09:38:10;;;;;;;;;;;;;;;;;;5016607;28;19909;-68
2021/07/23 09:40:37;;;;;;;;;;;;;;;;;;5073651;22;19958;-67
2021/07/23 09:43:04;;;;;;;;;;;;;;;;;;5064501;28;20016;-67
2021/07/23 09:45:31;;;;;;;;;;;;;;;;;;5065572;28;19924;-67
2021/07/23 09:47:58;;;;;;;;;;;;;;;;;;5064212;28;19937;-68
2021/07/23 09:50:25;;;;;;;;;;;;;;;;;;5065710;28;19929;-67
2021/07/23 09:52:52;;;;;;;;;;;;;;;;;;5065686;28;20470;-68
2021/07/23 09:55:19;;;;;;;;;;;;;;;;;;5062702;28;19925;-69
2021/07/23 09:57:46;;;;;;;;;;;;;;;;;;5063628;28;20368;-68
2021/07/23 10:00:13;;;;;;;;;;;;;;;;;;5063786;28;19936;-68
2021/07/23 10:02:39;;;;;;;;;;;;;;;;;;5069363;28;20026;-68
2021/07/23 10:05:07;;;;;;;;;;;;;;;;;;5063918;28;19931;-68
2021/07/23 10:07:33;;;;;;;;;;;;;;;;;;5065755;28;19928;-68
2021/07/23 10:10:00;;;;;;;;;;;;;;;;;;5063801;28;19924;-68
2021/07/23 10:12:27;;;;;;;;;;;;;;;;;;5064444;28;20452;-68
2021/07/23 10:14:54;;;;;;;;;;;;;;;;;;5067473;28;19928;-68
2021/07/23 10:17:23;;;;;;;;;;;;;;;;;;5066707;28;19925;-67
2021/07/23 10:19:55;;;;;;;;;;;;;;;;;;5063059;28;19928;-67
2021/07/23 10:22:22;;;;;;;;;;;;;;;;;;5064912;28;20396;-66
2021/07/23 10:24:49;;;;;;;;;;;;;;;;;;5062211;28;19932;-67
2021/07/23 10:27:16;;;;;;;;;;;;;;;;;;5062583;28;20289;-68
2021/07/23 10:29:43;;;;;;;;;;;;;;;;;;5066743;28;19938;-68
2021/07/23 10:32:12;;;;;;;;;;;;;;;;;;5065913;28;19925;-68
2021/07/23 10:34:38;;;;;;;;;;;;;;;;;;5067208;28;19925;-67
2021/07/23 10:37:05;;;;;;;;;;;;;;;;;;5068025;28;19925;-67
2021/07/23 10:39:32;;;;;;;;;;;;;;;;;;5063051;28;19925;-68
2021/07/23 10:41:59;;;;;;;;;;;;;;;;;;5066675;28;19933;-68
2021/07/23 10:44:26;;;;;;;;;;;;;;;;;;5064789;28;19925;-67
2021/07/23 10:46:53;;;;;;;;;;;;;;;;;;5063646;28;19999;-68
2021/07/23 10:49:20;;;;;;;;;;;;;;;;;;5067200;28;19932;-68
2021/07/23 10:51:47;;;;;;;;;;;;;;;;;;5065298;28;19931;-68
2021/07/23 10:54:14;;;;;;;;;;;;;;;;;;5066638;28;19932;-68
2021/07/23 10:56:41;;;;;;;;;;;;;;;;;;5064285;28;20418;-68
2021/07/23 10:59:08;;;;;;;;;;;;;;;;;;5065399;28;20488;-68
2021/07/23 11:01:35;;;;;;;;;;;;;;;;;;5068643;28;19931;-68
2021/07/23 11:04:02;;;;;;;;;;;;;;;;;;5065391;28;19947;-68
2021/07/23 11:06:29;;;;;;;;;;;;;;;;;;5065931;28;19928;-67
2021/07/23 11:08:56;;;;;;;;;;;;;;;;;;5064461;28;19935;-68
2021/07/23 11:11:23;;;;;;;;;;;;;;;;;;5065928;28;19924;-68
2021/07/23 11:13:50;;;;;;;;;;;;;;;;;;5064861;28;20265;-68
2021/07/23 11:16:17;;;;;;;;;;;;;;;;;;5066883;28;19924;-68
2021/07/23 11:18:44;;;;;;;;;;;;;;;;;;5063738;28;19932;-68
2021/07/23 11:21:11;;;;;;;;;;;;;;;;;;5063276;28;19924;-68
2021/07/23 11:23:38;;;;;;;;;;;;;;;;;;5066255;28;19932;-67
2021/07/23 11:26:05;;;;;;;;;;;;;;;;;;5061954;28;19935;-68
2021/07/23 11:28:32;;;;;;;;;;;;;;;;;;5062020;28;19933;-66
2021/07/23 11:30:59;;;;;;;;;;;;;;;;;;5066154;28;19928;-66
2021/07/23 11:33:26;;;;;;;;;;;;;;;;;;5058267;28;20024;-67
2021/07/23 11:35:53;;;;;;;;;;;;;;;;;;5062141;28;19924;-67
2021/07/23 11:38:22;;;;;;;;;;;;;;;;;;5065333;28;19928;-67
2021/07/23 11:40:49;;;;;;;;;;;;;;;;;;5065133;28;20371;-67
2021/07/23 11:43:15;;;;;;;;;;;;;;;;;;5063669;28;19928;-66
2021/07/23 11:45:45;;;;;;;;;;;;;;;;;;5061157;28;19924;-67
2021/07/23 11:48:13;;;;;;;;;;;;;;;;;;5064532;28;19924;-67
2021/07/23 11:50:40;;;;;;;;;;;;;;;;;;5062549;28;19929;-68
2021/07/23 11:53:07;;;;;;;;;;;;;;;;;;5063665;28;19924;-68
2021/07/23 11:55:34;;;;;;;;;;;;;;;;;;5062768;28;20107;-68
2021/07/23 11:58:01;;;;;;;;;;;;;;;;;;5063127;28;19928;-67
2021/07/23 12:00:30;;;;;;;;;;;;;;;;;;5063505;28;20298;-68
2021/07/23 12:02:57;;;;;;;;;;;;;;;;;;5061779;28;19928;-67
2021/07/23 12:05:24;;;;;;;;;;;;;;;;;;5063859;28;20340;-67
2021/07/23 12:07:51;;;;;;;;;;;;;;;;;;5062362;28;19931;-67
2021/07/23 12:10:18;;;;;;;;;;;;;;;;;;5065160;28;19931;-68
2021/07/23 12:12:44;;;;;;;;;;;;;;;;;;5066892;28;20292;-69
2021/07/23 12:15:12;;;;;;;;;;;;;;;;;;5066079;28;19935;-69
2021/07/23 12:17:39;;;;;;;;;;;;;;;;;;5063977;28;19928;-69
2021/07/23 12:20:06;;;;;;;;;;;;;;;;;;5064519;28;19929;-69
2021/07/23 12:22:33;;;;;;;;;;;;;;;;;;5063762;28;20351;-69
2021/07/23 12:25:00;;;;;;;;;;;;;;;;;;5066256;28;19970;-69
2021/07/23 12:27:27;;;;;;;;;;;;;;;;;;5065290;28;19929;-68
2021/07/23 12:29:54;;;;;;;;;;;;;;;;;;5059932;28;22007;-68
2021/07/23 12:32:23;;;;;;;;;;;;;;;;;;5065516;28;19955;-69
2021/07/23 12:34:50;;;;;;;;;;;;;;;;;;5068524;28;19931;-69
2021/07/23 12:37:17;;;;;;;;;;;;;;;;;;5061935;28;19928;-69
2021/07/23 12:39:44;;;;;;;;;;;;;;;;;;5068547;28;19928;-69
2021/07/23 12:42:11;;;;;;;;;;;;;;;;;;5065999;28;20069;-70
2021/07/23 12:44:38;;;;;;;;;;;;;;;;;;5075862;28;19929;-69
2021/07/23 12:47:05;;;;;;;;;;;;;;;;;;5085052;28;19928;-69
2021/07/23 12:49:32;;;;;;;;;;;;;;;;;;5080354;28;20011;-69
2021/07/23 12:51:59;;;;;;;;;;;;;;;;;;5061897;28;19932;-69
2021/07/23 12:54:26;;;;;;;;;;;;;;;;;;5065317;28;19932;-69
2021/07/23 12:56:53;;;;;;;;;;;;;;;;;;5068949;28;19924;-68
2021/07/23 12:59:20;;;;;;;;;;;;;;;;;;5064480;28;19924;-68
2021/07/23 13:01:47;;;;;;;;;;;;;;;;;;5066960;28;19925;-67
2021/07/23 13:04:13;;;;;;;;;;;;;;;;;;5065699;28;19971;-67
2021/07/23 13:06:40;;;;;;;;;;;;;;;;;;5067235;28;19931;-68
2021/07/23 13:09:07;;;;;;;;;;;;;;;;;;5065420;28;19932;-68
2021/07/23 13:11:34;;;;;;;;;;;;;;;;;;5070389;28;20028;-67
2021/07/23 13:14:01;;;;;;;;;;;;;;;;;;5070754;28;20027;-68
2021/07/23 13:16:28;;;;;;;;;;;;;;;;;;5069129;28;19954;-68
2021/07/23 13:18:57;;;;;;;;;;;;;;;;;;5068299;28;19925;-68
2021/07/23 13:21:26;;;;;;;;;;;;;;;;;;5071093;28;20315;-68
2021/07/23 13:23:53;;;;;;;;;;;;;;;;;;5062997;28;19963;-68
2021/07/23 13:26:20;;;;;;;;;;;;;;;;;;5063639;28;19932;-68
2021/07/23 13:28:47;;;;;;;;;;;;;;;;;;5068635;28;19935;-68
2021/07/23 13:31:14;;;;;;;;;;;;;;;;;;5065453;28;20364;-68
2021/07/23 13:33:41;;;;;;;;;;;;;;;;;;5066355;28;19925;-68
2021/07/23 13:36:08;;;;;;;;;;;;;;;;;;5067561;28;19932;-69
2021/07/23 13:38:35;;;;;;;;;;;;;;;;;;5066953;28;20440;-69
2021/07/23 13:41:02;;;;;;;;;;;;;;;;;;5068598;28;20285;-69
2021/07/23 13:43:29;;;;;;;;;;;;;;;;;;5062297;28;19965;-68
2021/07/23 13:45:56;;;;;;;;;;;;;;;;;;5066971;28;20376;-68
2021/07/23 13:48:23;;;;;;;;;;;;;;;;;;5070289;28;19947;-69
2021/07/23 13:50:50;;;;;;;;;;;;;;;;;;5065103;28;19924;-69
2021/07/23 13:53:17;;;;;;;;;;;;;;;;;;5065196;28;19924;-68
2021/07/23 13:55:44;;;;;;;;;;;;;;;;;;5068141;28;20323;-68
2021/07/23 13:58:11;;;;;;;;;;;;;;;;;;5063325;28;19924;-67
2021/07/23 14:00:38;;;;;;;;;;;;;;;;;;5067861;28;19924;-67
2021/07/23 14:03:05;;;;;;;;;;;;;;;;;;5061947;28;19929;-67
2021/07/23 14:05:32;;;;;;;;;;;;;;;;;;5059871;28;20361;-67
2021/07/23 14:07:58;;;;;;;;;;;;;;;;;;5058142;28;19936;-67
2021/07/23 14:10:25;;;;;;;;;;;;;;;;;;5063145;28;19951;-67
2021/07/23 14:12:52;;;;;;;;;;;;;;;;;;5060997;28;19925;-67
2021/07/23 14:15:19;;;;;;;;;;;;;;;;;;5065235;28;19935;-67
2021/07/23 14:17:46;;;;;;;;;;;;;;;;;;5065904;28;19935;-67
2021/07/23 14:20:13;;;;;;;;;;;;;;;;;;5061057;28;20320;-68
2021/07/23 14:22:40;;;;;;;;;;;;;;;;;;5063905;28;19929;-69
2021/07/23 14:25:07;;;;;;;;;;;;;;;;;;5062287;28;20015;-68
2021/07/23 14:27:34;;;;;;;;;;;;;;;;;;5066152;28;19934;-68
2021/07/23 14:30:01;;;;;;;;;;;;;;;;;;5070079;28;19924;-69
2021/07/23 14:32:28;;;;;;;;;;;;;;;;;;5064594;28;19925;-69
2021/07/23 14:34:55;;;;;;;;;;;;;;;;;;5073269;28;19925;-69
2021/07/23 14:37:22;;;;;;;;;;;;;;;;;;5068143;28;19928;-69
2021/07/23 14:39:49;;;;;;;;;;;;;;;;;;5069704;28;19924;-69
2021/07/23 14:42:16;;;;;;;;;;;;;;;;;;5070275;28;19932;-68
2021/07/23 14:44:43;;;;;;;;;;;;;;;;;;5066232;28;19931;-68
2021/07/23 14:47:09;;;;;;;;;;;;;;;;;;5070326;28;19931;-69
2021/07/23 14:49:36;;;;;;;;;;;;;;;;;;5070594;28;19929;-69
2021/07/23 14:52:03;;;;;;;;;;;;;;;;;;5068832;28;20320;-73
2021/07/23 14:54:30;;;;;;;;;;;;;;;;;;5068748;28;20019;-69
2021/07/23 14:56:57;;;;;;;;;;;;;;;;;;5064954;28;20292;-69
2021/07/23 14:59:24;;;;;;;;;;;;;;;;;;5064415;28;19931;-69
2021/07/23 15:01:52;;;;;;;;;;;;;;;;;;5062277;28;19927;-68
2021/07/23 15:04:19;;;;;;;;;;;;;;;;;;5063667;28;19936;-69
2021/07/23 15:06:46;;;;;;;;;;;;;;;;;;5062733;28;19929;-69
2021/07/23 15:09:12;;;;;;;;;;;;;;;;;;5067322;28;19924;-69
2021/07/23 15:11:39;;;;;;;;;;;;;;;;;;5066609;28;20092;-69
2021/07/23 15:14:07;;;;;;;;;;;;;;;;;;5067366;28;19932;-69
2021/07/23 15:16:34;;;;;;;;;;;;;;;;;;5062797;28;19987;-69
2021/07/23 15:19:05;;;;;;;;;;;;;;;;;;5063847;28;19930;-69
2021/07/23 15:21:37;;;;;;;;;;;;;;;;;;5065812;28;19928;-69
2021/07/23 15:24:04;;;;;;;;;;;;;;;;;;5065088;28;19924;-69
2021/07/23 15:26:31;;;;;;;;;;;;;;;;;;5067766;28;19932;-69
2021/07/23 15:28:58;;;;;;;;;;;;;;;;;;5066340;28;20331;-69
2021/07/23 15:31:25;;;;;;;;;;;;;;;;;;5067082;28;19947;-69
2021/07/23 15:33:52;;;;;;;;;;;;;;;;;;5064438;28;19936;-70
2021/07/23 15:36:19;;;;;;;;;;;;;;;;;;5067376;28;19928;-69
2021/07/23 15:38:46;;;;;;;;;;;;;;;;;;5064655;28;19928;-69
2021/07/23 15:41:13;;;;;;;;;;;;;;;;;;5061583;28;19933;-69
2021/07/23 15:43:40;;;;;;;;;;;;;;;;;;5065305;28;20307;-69
2021/07/23 15:46:07;;;;;;;;;;;;;;;;;;5065948;28;19928;-69
2021/07/23 15:48:34;;;;;;;;;;;;;;;;;;5063691;28;19932;-70
2021/07/23 15:51:01;;;;;;;;;;;;;;;;;;5066614;28;19924;-70
2021/07/23 15:53:28;;;;;;;;;;;;;;;;;;5064521;28;19996;-69
2021/07/23 15:55:55;;;;;;;;;;;;;;;;;;5061825;28;19929;-69
2021/07/23 15:58:22;;;;;;;;;;;;;;;;;;5061340;28;19924;-70
2021/07/23 16:00:49;;;;;;;;;;;;;;;;;;5063853;28;20431;-70
2021/07/23 16:03:16;;;;;;;;;;;;;;;;;;5060987;28;20102;-69
2021/07/23 16:05:43;;;;;;;;;;;;;;;;;;5063339;28;19932;-69
2021/07/23 16:08:09;;;;;;;;;;;;;;;;;;5063598;28;19939;-69
2021/07/23 16:10:36;;;;;;;;;;;;;;;;;;5062217;28;20368;-69
2021/07/23 16:13:03;;;;;;;;;;;;;;;;;;5060815;28;19933;-69
2021/07/23 16:15:30;;;;;;;;;;;;;;;;;;5064312;28;19924;-69
2021/07/23 16:17:57;;;;;;;;;;;;;;;;;;5064442;28;19924;-69
2021/07/23 16:20:25;;;;;;;;;;;;;;;;;;5064941;28;19932;-70
2021/07/23 16:22:51;;;;;;;;;;;;;;;;;;5063448;28;20444;-69
2021/07/23 16:25:18;;;;;;;;;;;;;;;;;;5061770;28;19925;-69
2021/07/23 16:27:45;;;;;;;;;;;;;;;;;;5065509;28;19931;-69
2021/07/23 16:30:12;;;;;;;;;;;;;;;;;;5069922;28;19934;-69
2021/07/23 16:32:39;;;;;;;;;;;;;;;;;;5068593;28;20277;-69
2021/07/23 16:35:06;;;;;;;;;;;;;;;;;;5063879;28;19929;-69
2021/07/23 16:37:33;;;;;;;;;;;;;;;;;;5070079;28;19986;-69
2021/07/23 16:40:00;;;;;;;;;;;;;;;;;;5064293;28;19932;-69
2021/07/23 16:42:27;;;;;;;;;;;;;;;;;;5069712;28;19932;-69
2021/07/23 16:44:59;;;;;;;;;;;;;;;;;;5068628;28;20455;-68